sensor_id;sensor_type;location;lat;lon;timestamp;pressure;altitude;pressure_sealevel;temperature;humidity
51999;BME280;73339;50.924;11.598;2024-03-02T00:01:55;98394.76;;;19.86;32.70
51999;BME280;73339;50.924;11.598;2024-03-02T00:04:24;98395.40;;;19.83;32.80
51999;BME280;73339;50.924;11.598;2024-03-02T00:06:55;98393.94;;;19.79;32.86
51999;BME280;73339;50.924;11.598;2024-03-02T00:09:25;98391.32;;;19.77;32.86
51999;BME280;73339;50.924;11.598;2024-03-02T00:11:56;98389.00;;;19.84;32.73
51999;BME280;73339;50.924;11.598;2024-03-02T00:14:29;98386.70;;;19.82;32.77
51999;BME280;73339;50.924;11.598;2024-03-02T00:16:57;98384.82;;;19.77;32.85
51999;BME280;73339;50.924;11.598;2024-03-02T00:19:27;98387.81;;;19.68;33.06
51999;BME280;73339;50.924;11.598;2024-03-02T00:22:00;98383.38;;;19.82;32.75
51999;BME280;73339;50.924;11.598;2024-03-02T00:24:32;98382.52;;;19.78;32.83
51999;BME280;73339;50.924;11.598;2024-03-02T00:26:59;98380.65;;;19.82;32.70
51999;BME280;73339;50.924;11.598;2024-03-02T00:29:30;98378.43;;;19.80;32.76
51999;BME280;73339;50.924;11.598;2024-03-02T00:32:01;98377.86;;;19.75;32.83
51999;BME280;73339;50.924;11.598;2024-03-02T00:34:31;98377.30;;;19.90;32.54
51999;BME280;73339;50.924;11.598;2024-03-02T00:37:01;98378.16;;;19.90;32.54
51999;BME280;73339;50.924;11.598;2024-03-02T00:39:31;98378.78;;;19.78;32.75
51999;BME280;73339;50.924;11.598;2024-03-02T00:42:02;98376.56;;;19.74;32.83
51999;BME280;73339;50.924;11.598;2024-03-02T00:44:33;98374.53;;;19.77;32.79
51999;BME280;73339;50.924;11.598;2024-03-02T00:47:03;98374.60;;;19.75;32.80
51999;BME280;73339;50.924;11.598;2024-03-02T00:49:33;98373.67;;;19.84;32.63
51999;BME280;73339;50.924;11.598;2024-03-02T00:52:05;98375.18;;;19.76;32.75
51999;BME280;73339;50.924;11.598;2024-03-02T00:54:34;98375.55;;;19.76;32.74
51999;BME280;73339;50.924;11.598;2024-03-02T00:57:04;98374.29;;;19.76;32.76
51999;BME280;73339;50.924;11.598;2024-03-02T00:59:35;98373.78;;;19.77;32.70
51999;BME280;73339;50.924;11.598;2024-03-02T01:02:05;98374.12;;;19.78;32.70
51999;BME280;73339;50.924;11.598;2024-03-02T01:04:36;98373.14;;;19.78;32.66
51999;BME280;73339;50.924;11.598;2024-03-02T01:07:06;98372.03;;;19.80;32.62
51999;BME280;73339;50.924;11.598;2024-03-02T01:09:37;98372.52;;;19.88;32.46
51999;BME280;73339;50.924;11.598;2024-03-02T01:12:07;98375.07;;;19.81;32.59
51999;BME280;73339;50.924;11.598;2024-03-02T01:14:37;98372.90;;;19.84;32.56
51999;BME280;73339;50.924;11.598;2024-03-02T01:17:08;98371.62;;;19.78;32.64
51999;BME280;73339;50.924;11.598;2024-03-02T01:19:38;98371.80;;;19.81;32.58
51999;BME280;73339;50.924;11.598;2024-03-02T01:22:09;98370.71;;;19.84;32.52
51999;BME280;73339;50.924;11.598;2024-03-02T01:24:39;98371.75;;;19.81;32.56
51999;BME280;73339;50.924;11.598;2024-03-02T01:27:09;98371.54;;;19.78;32.59
51999;BME280;73339;50.924;11.598;2024-03-02T01:29:40;98374.17;;;19.75;32.65
51999;BME280;73339;50.924;11.598;2024-03-02T01:32:11;98373.66;;;19.83;32.50
51999;BME280;73339;50.924;11.598;2024-03-02T01:34:41;98377.59;;;19.71;32.70
51999;BME280;73339;50.924;11.598;2024-03-02T01:37:12;98379.30;;;19.77;32.59
51999;BME280;73339;50.924;11.598;2024-03-02T01:39:42;98377.82;;;19.75;32.61
51999;BME280;73339;50.924;11.598;2024-03-02T01:42:12;98375.93;;;19.74;32.63
51999;BME280;73339;50.924;11.598;2024-03-02T01:44:43;98378.13;;;19.77;32.55
51999;BME280;73339;50.924;11.598;2024-03-02T01:47:13;98378.76;;;19.84;32.40
51999;BME280;73339;50.924;11.598;2024-03-02T01:49:44;98377.06;;;19.90;32.34
51999;BME280;73339;50.924;11.598;2024-03-02T01:52:15;98375.26;;;19.73;32.63
51999;BME280;73339;50.924;11.598;2024-03-02T01:54:45;98376.02;;;19.72;32.62
51999;BME280;73339;50.924;11.598;2024-03-02T01:57:15;98377.34;;;19.74;32.62
51999;BME280;73339;50.924;11.598;2024-03-02T01:59:45;98377.12;;;19.64;32.78
51999;BME280;73339;50.924;11.598;2024-03-02T02:02:15;98375.26;;;19.82;32.42
51999;BME280;73339;50.924;11.598;2024-03-02T02:04:46;98375.98;;;19.75;32.52
51999;BME280;73339;50.924;11.598;2024-03-02T02:07:17;98373.32;;;19.68;32.68
51999;BME280;73339;50.924;11.598;2024-03-02T02:09:47;98376.98;;;19.84;32.39
51999;BME280;73339;50.924;11.598;2024-03-02T02:12:18;98377.33;;;19.71;32.59
51999;BME280;73339;50.924;11.598;2024-03-02T02:14:48;98382.93;;;19.59;32.85
51999;BME280;73339;50.924;11.598;2024-03-02T02:17:18;98384.97;;;19.76;32.52
51999;BME280;73339;50.924;11.598;2024-03-02T02:19:49;98383.98;;;19.84;32.36
51999;BME280;73339;50.924;11.598;2024-03-02T02:22:19;98382.01;;;19.75;32.51
51999;BME280;73339;50.924;11.598;2024-03-02T02:24:49;98382.30;;;19.85;32.31
51999;BME280;73339;50.924;11.598;2024-03-02T02:27:20;98385.84;;;19.75;32.51
51999;BME280;73339;50.924;11.598;2024-03-02T02:29:50;98388.65;;;19.83;32.37
51999;BME280;73339;50.924;11.598;2024-03-02T02:32:21;98388.24;;;19.77;32.47
51999;BME280;73339;50.924;11.598;2024-03-02T02:34:52;98390.67;;;19.81;32.40
51999;BME280;73339;50.924;11.598;2024-03-02T02:37:22;98391.83;;;19.91;32.22
51999;BME280;73339;50.924;11.598;2024-03-02T02:39:52;98395.79;;;19.86;32.31
51999;BME280;73339;50.924;11.598;2024-03-02T02:42:22;98400.00;;;19.82;32.37
51999;BME280;73339;50.924;11.598;2024-03-02T02:44:52;98401.09;;;19.75;32.48
51999;BME280;73339;50.924;11.598;2024-03-02T02:47:23;98401.38;;;19.68;32.62
51999;BME280;73339;50.924;11.598;2024-03-02T02:49:54;98399.45;;;19.78;32.44
51999;BME280;73339;50.924;11.598;2024-03-02T02:52:25;98398.88;;;19.84;32.36
51999;BME280;73339;50.924;11.598;2024-03-02T02:54:55;98398.70;;;19.76;32.47
51999;BME280;73339;50.924;11.598;2024-03-02T02:57:26;98395.47;;;19.80;32.42
51999;BME280;73339;50.924;11.598;2024-03-02T02:59:56;98396.36;;;19.73;32.53
51999;BME280;73339;50.924;11.598;2024-03-02T03:02:28;98395.43;;;19.82;32.38
51999;BME280;73339;50.924;11.598;2024-03-02T03:04:57;98393.46;;;19.82;32.37
51999;BME280;73339;50.924;11.598;2024-03-02T03:07:28;98393.12;;;19.78;32.45
51999;BME280;73339;50.924;11.598;2024-03-02T03:09:58;98393.97;;;19.87;32.28
51999;BME280;73339;50.924;11.598;2024-03-02T03:12:28;98394.46;;;19.94;32.14
51999;BME280;73339;50.924;11.598;2024-03-02T03:14:59;98393.17;;;19.82;32.37
51999;BME280;73339;50.924;11.598;2024-03-02T03:17:29;98395.12;;;19.89;32.22
51999;BME280;73339;50.924;11.598;2024-03-02T03:20:00;98393.73;;;19.76;32.48
51999;BME280;73339;50.924;11.598;2024-03-02T03:22:30;98395.06;;;19.84;32.31
51999;BME280;73339;50.924;11.598;2024-03-02T03:25:00;98398.35;;;19.86;32.29
51999;BME280;73339;50.924;11.598;2024-03-02T03:27:30;98398.94;;;19.75;32.48
51999;BME280;73339;50.924;11.598;2024-03-02T03:30:01;98396.19;;;19.86;32.28
51999;BME280;73339;50.924;11.598;2024-03-02T03:32:31;98394.53;;;19.81;32.36
51999;BME280;73339;50.924;11.598;2024-03-02T03:35:02;98392.71;;;19.88;32.22
51999;BME280;73339;50.924;11.598;2024-03-02T03:37:33;98391.75;;;19.80;32.38
51999;BME280;73339;50.924;11.598;2024-03-02T03:40:04;98389.54;;;19.84;32.27
51999;BME280;73339;50.924;11.598;2024-03-02T03:42:33;98388.28;;;19.84;32.31
51999;BME280;73339;50.924;11.598;2024-03-02T03:45:05;98383.36;;;19.90;32.18
51999;BME280;73339;50.924;11.598;2024-03-02T03:47:34;98382.59;;;19.74;32.48
51999;BME280;73339;50.924;11.598;2024-03-02T03:50:06;98383.23;;;19.83;32.33
51999;BME280;73339;50.924;11.598;2024-03-02T03:52:35;98381.48;;;19.76;32.47
51999;BME280;73339;50.924;11.598;2024-03-02T03:55:06;98382.05;;;19.79;32.39
51999;BME280;73339;50.924;11.598;2024-03-02T03:57:37;98382.65;;;19.81;32.36
51999;BME280;73339;50.924;11.598;2024-03-02T04:00:08;98382.86;;;19.84;32.30
51999;BME280;73339;50.924;11.598;2024-03-02T04:02:38;98384.07;;;19.78;32.39
51999;BME280;73339;50.924;11.598;2024-03-02T04:05:08;98383.45;;;19.84;32.31
51999;BME280;73339;50.924;11.598;2024-03-02T04:07:39;98380.46;;;19.83;32.29
51999;BME280;73339;50.924;11.598;2024-03-02T04:10:10;98384.42;;;19.89;32.20
51999;BME280;73339;50.924;11.598;2024-03-02T04:12:40;98381.77;;;19.92;32.14
51999;BME280;73339;50.924;11.598;2024-03-02T04:15:10;98382.47;;;19.80;32.34
51999;BME280;73339;50.924;11.598;2024-03-02T04:17:41;98384.80;;;19.72;32.53
51999;BME280;73339;50.924;11.598;2024-03-02T04:20:11;98385.58;;;19.77;32.43
51999;BME280;73339;50.924;11.598;2024-03-02T04:22:41;98386.61;;;19.76;32.44
51999;BME280;73339;50.924;11.598;2024-03-02T04:25:12;98390.44;;;19.87;32.23
51999;BME280;73339;50.924;11.598;2024-03-02T04:27:43;98394.59;;;19.79;32.39
51999;BME280;73339;50.924;11.598;2024-03-02T04:30:14;98395.90;;;19.77;32.39
51999;BME280;73339;50.924;11.598;2024-03-02T04:32:44;98397.62;;;19.80;32.33
51999;BME280;73339;50.924;11.598;2024-03-02T04:35:14;98398.05;;;19.80;32.36
51999;BME280;73339;50.924;11.598;2024-03-02T04:37:44;98400.71;;;19.81;32.33
51999;BME280;73339;50.924;11.598;2024-03-02T04:40:15;98406.34;;;19.78;32.40
51999;BME280;73339;50.924;11.598;2024-03-02T04:42:45;98408.10;;;19.82;32.31
51999;BME280;73339;50.924;11.598;2024-03-02T04:45:15;98407.73;;;19.80;32.37
51999;BME280;73339;50.924;11.598;2024-03-02T04:47:46;98409.09;;;19.87;32.22
51999;BME280;73339;50.924;11.598;2024-03-02T04:50:16;98413.74;;;19.79;32.38
51999;BME280;73339;50.924;11.598;2024-03-02T04:52:46;98416.43;;;19.80;32.36
51999;BME280;73339;50.924;11.598;2024-03-02T04:55:17;98418.61;;;19.86;32.26
51999;BME280;73339;50.924;11.598;2024-03-02T04:57:47;98419.48;;;19.96;32.06
51999;BME280;73339;50.924;11.598;2024-03-02T05:00:18;98417.87;;;19.92;32.12
51999;BME280;73339;50.924;11.598;2024-03-02T05:02:48;98417.58;;;19.79;32.39
51999;BME280;73339;50.924;11.598;2024-03-02T05:05:18;98415.26;;;19.80;32.34
51999;BME280;73339;50.924;11.598;2024-03-02T05:07:49;98416.00;;;19.93;32.11
51999;BME280;73339;50.924;11.598;2024-03-02T05:10:20;98416.40;;;19.77;32.41
51999;BME280;73339;50.924;11.598;2024-03-02T05:12:50;98416.23;;;19.93;32.13
51999;BME280;73339;50.924;11.598;2024-03-02T05:15:20;98413.41;;;19.84;32.27
51999;BME280;73339;50.924;11.598;2024-03-02T05:17:51;98411.91;;;19.87;32.23
51999;BME280;73339;50.924;11.598;2024-03-02T05:20:21;98414.07;;;19.85;32.26
51999;BME280;73339;50.924;11.598;2024-03-02T05:22:51;98413.75;;;19.90;32.16
51999;BME280;73339;50.924;11.598;2024-03-02T05:25:21;98411.34;;;19.80;32.36
51999;BME280;73339;50.924;11.598;2024-03-02T05:27:51;98414.04;;;19.81;32.33
51999;BME280;73339;50.924;11.598;2024-03-02T05:30:22;98416.54;;;19.88;32.21
51999;BME280;73339;50.924;11.598;2024-03-02T05:32:52;98416.36;;;19.84;32.27
51999;BME280;73339;50.924;11.598;2024-03-02T05:35:22;98415.50;;;19.81;32.33
51999;BME280;73339;50.924;11.598;2024-03-02T05:37:52;98411.95;;;19.79;32.40
51999;BME280;73339;50.924;11.598;2024-03-02T05:40:23;98411.73;;;19.82;32.32
51999;BME280;73339;50.924;11.598;2024-03-02T05:42:54;98415.26;;;19.79;32.37
51999;BME280;73339;50.924;11.598;2024-03-02T05:45:24;98410.05;;;19.79;32.38
51999;BME280;73339;50.924;11.598;2024-03-02T05:47:54;98410.38;;;19.74;32.46
51999;BME280;73339;50.924;11.598;2024-03-02T05:50:25;98410.33;;;19.87;32.23
51999;BME280;73339;50.924;11.598;2024-03-02T05:52:55;98411.04;;;19.84;32.28
51999;BME280;73339;50.924;11.598;2024-03-02T05:55:25;98410.38;;;19.81;32.34
51999;BME280;73339;50.924;11.598;2024-03-02T05:57:56;98410.29;;;19.78;32.41
51999;BME280;73339;50.924;11.598;2024-03-02T06:00:26;98420.32;;;19.98;32.04
51999;BME280;73339;50.924;11.598;2024-03-02T06:02:57;98422.37;;;19.95;32.08
51999;BME280;73339;50.924;11.598;2024-03-02T06:05:27;98426.22;;;19.89;32.19
51999;BME280;73339;50.924;11.598;2024-03-02T06:07:57;98427.14;;;19.82;32.32
51999;BME280;73339;50.924;11.598;2024-03-02T06:10:28;98427.80;;;19.76;32.44
51999;BME280;73339;50.924;11.598;2024-03-02T06:12:58;98427.35;;;19.86;32.26
51999;BME280;73339;50.924;11.598;2024-03-02T06:15:29;98426.49;;;19.82;32.32
51999;BME280;73339;50.924;11.598;2024-03-02T06:17:59;98428.46;;;19.75;32.46
51999;BME280;73339;50.924;11.598;2024-03-02T06:20:30;98426.18;;;19.81;32.34
51999;BME280;73339;50.924;11.598;2024-03-02T06:23:00;98427.03;;;19.81;32.36
51999;BME280;73339;50.924;11.598;2024-03-02T06:25:31;98427.49;;;20.01;31.99
51999;BME280;73339;50.924;11.598;2024-03-02T06:28:01;98425.93;;;19.83;32.31
51999;BME280;73339;50.924;11.598;2024-03-02T06:30:31;98427.19;;;19.92;32.15
51999;BME280;73339;50.924;11.598;2024-03-02T06:33:01;98430.30;;;19.93;32.14
51999;BME280;73339;50.924;11.598;2024-03-02T06:35:32;98430.81;;;19.71;32.56
51999;BME280;73339;50.924;11.598;2024-03-02T06:38:03;98431.42;;;19.81;32.38
51999;BME280;73339;50.924;11.598;2024-03-02T06:40:33;98433.71;;;19.89;32.22
51999;BME280;73339;50.924;11.598;2024-03-02T06:43:04;98430.55;;;19.78;32.41
51999;BME280;73339;50.924;11.598;2024-03-02T06:45:34;98429.62;;;19.85;32.30
51999;BME280;73339;50.924;11.598;2024-03-02T06:48:05;98431.28;;;19.87;32.28
51999;BME280;73339;50.924;11.598;2024-03-02T06:50:35;98433.77;;;19.82;32.35
51999;BME280;73339;50.924;11.598;2024-03-02T06:53:05;98437.07;;;19.85;32.30
51999;BME280;73339;50.924;11.598;2024-03-02T06:55:36;98438.94;;;19.74;32.54
51999;BME280;73339;50.924;11.598;2024-03-02T06:58:06;98441.11;;;19.88;32.25
51999;BME280;73339;50.924;11.598;2024-03-02T07:00:37;98441.51;;;19.83;32.35
51999;BME280;73339;50.924;11.598;2024-03-02T07:03:08;98445.82;;;19.84;32.32
51999;BME280;73339;50.924;11.598;2024-03-02T07:05:37;98448.26;;;19.83;32.38
51999;BME280;73339;50.924;11.598;2024-03-02T07:08:08;98445.68;;;19.81;32.41
51999;BME280;73339;50.924;11.598;2024-03-02T07:10:38;98443.51;;;19.88;32.29
51999;BME280;73339;50.924;11.598;2024-03-02T07:13:09;98448.33;;;19.79;32.45
51999;BME280;73339;50.924;11.598;2024-03-02T07:15:39;98450.45;;;19.88;32.27
51999;BME280;73339;50.924;11.598;2024-03-02T07:18:10;98452.55;;;19.84;32.37
51999;BME280;73339;50.924;11.598;2024-03-02T07:20:40;98451.38;;;19.79;32.45
51999;BME280;73339;50.924;11.598;2024-03-02T07:23:11;98455.33;;;19.96;32.18
51999;BME280;73339;50.924;11.598;2024-03-02T07:25:41;98455.93;;;19.95;32.20
51999;BME280;73339;50.924;11.598;2024-03-02T07:28:12;98454.84;;;20.02;31.99
51999;BME280;73339;50.924;11.598;2024-03-02T07:30:42;98460.33;;;19.98;32.10
51999;BME280;73339;50.924;11.598;2024-03-02T07:33:12;98464.97;;;19.83;32.38
51999;BME280;73339;50.924;11.598;2024-03-02T07:35:43;98465.89;;;19.91;32.28
51999;BME280;73339;50.924;11.598;2024-03-02T07:38:13;98466.94;;;19.88;32.34
51999;BME280;73339;50.924;11.598;2024-03-02T07:40:44;98470.13;;;19.83;32.45
51999;BME280;73339;50.924;11.598;2024-03-02T07:43:15;98472.35;;;20.00;32.11
51999;BME280;73339;50.924;11.598;2024-03-02T07:45:45;98470.10;;;20.10;31.94
51999;BME280;73339;50.924;11.598;2024-03-02T07:48:16;98467.32;;;19.94;32.24
51999;BME280;73339;50.924;11.598;2024-03-02T07:50:46;98471.03;;;20.05;32.06
51999;BME280;73339;50.924;11.598;2024-03-02T07:53:16;98477.16;;;20.09;31.98
51999;BME280;73339;50.924;11.598;2024-03-02T07:55:47;98476.61;;;20.03;32.10
51999;BME280;73339;50.924;11.598;2024-03-02T07:58:17;98474.53;;;19.94;32.27
51999;BME280;73339;50.924;11.598;2024-03-02T08:00:48;98477.04;;;20.08;32.02
51999;BME280;73339;50.924;11.598;2024-03-02T08:03:18;98474.01;;;19.92;32.32
51999;BME280;73339;50.924;11.598;2024-03-02T08:05:49;98469.43;;;20.08;32.04
51999;BME280;73339;50.924;11.598;2024-03-02T08:08:19;98475.15;;;20.11;31.98
51999;BME280;73339;50.924;11.598;2024-03-02T08:10:50;98477.25;;;20.07;32.07
51999;BME280;73339;50.924;11.598;2024-03-02T08:13:20;98473.29;;;20.07;32.07
51999;BME280;73339;50.924;11.598;2024-03-02T08:15:51;98474.51;;;20.24;31.75
51999;BME280;73339;50.924;11.598;2024-03-02T08:18:21;98473.63;;;20.20;31.83
51999;BME280;73339;50.924;11.598;2024-03-02T08:20:51;98475.97;;;20.27;31.75
51999;BME280;73339;50.924;11.598;2024-03-02T08:23:22;98474.96;;;20.19;31.91
51999;BME280;73339;50.924;11.598;2024-03-02T08:25:52;98477.49;;;20.25;31.83
51999;BME280;73339;50.924;11.598;2024-03-02T08:28:23;98476.23;;;20.33;31.68
51999;BME280;73339;50.924;11.598;2024-03-02T08:30:53;98477.56;;;20.37;31.62
51999;BME280;73339;50.924;11.598;2024-03-02T08:33:24;98479.76;;;20.34;31.70
51999;BME280;73339;50.924;11.598;2024-03-02T08:35:54;98481.26;;;20.36;31.66
51999;BME280;73339;50.924;11.598;2024-03-02T08:38:25;98482.78;;;20.40;31.61
51999;BME280;73339;50.924;11.598;2024-03-02T08:40:55;98481.10;;;20.36;31.71
51999;BME280;73339;50.924;11.598;2024-03-02T08:43:25;98478.23;;;20.29;31.85
51999;BME280;73339;50.924;11.598;2024-03-02T08:45:56;98481.02;;;20.27;31.90
51999;BME280;73339;50.924;11.598;2024-03-02T08:48:26;98484.39;;;20.33;31.81
51999;BME280;73339;50.924;11.598;2024-03-02T08:50:57;98486.81;;;20.30;31.88
51999;BME280;73339;50.924;11.598;2024-03-02T08:53:27;98489.05;;;20.27;31.91
51999;BME280;73339;50.924;11.598;2024-03-02T08:55:58;98487.70;;;20.22;32.03
51999;BME280;73339;50.924;11.598;2024-03-02T08:58:28;98486.08;;;20.25;32.02
51999;BME280;73339;50.924;11.598;2024-03-02T09:00:59;98488.36;;;20.23;32.08
51999;BME280;73339;50.924;11.598;2024-03-02T09:03:29;98491.87;;;20.23;32.09
51999;BME280;73339;50.924;11.598;2024-03-02T09:06:00;98493.45;;;20.20;32.18
51999;BME280;73339;50.924;11.598;2024-03-02T09:08:30;98490.15;;;20.26;32.07
51999;BME280;73339;50.924;11.598;2024-03-02T09:11:01;98488.21;;;20.29;32.06
51999;BME280;73339;50.924;11.598;2024-03-02T09:13:31;98490.15;;;20.28;32.09
51999;BME280;73339;50.924;11.598;2024-03-02T09:16:02;98494.89;;;20.28;32.11
51999;BME280;73339;50.924;11.598;2024-03-02T09:18:32;98495.14;;;20.27;32.15
51999;BME280;73339;50.924;11.598;2024-03-02T09:21:03;98492.71;;;20.28;32.15
51999;BME280;73339;50.924;11.598;2024-03-02T09:23:33;98492.54;;;20.27;32.18
51999;BME280;73339;50.924;11.598;2024-03-02T09:26:04;98496.02;;;20.37;32.04
51999;BME280;73339;50.924;11.598;2024-03-02T09:28:34;98491.29;;;20.32;32.13
51999;BME280;73339;50.924;11.598;2024-03-02T09:31:05;98488.74;;;20.16;32.46
51999;BME280;73339;50.924;11.598;2024-03-02T09:33:35;98487.85;;;20.13;32.51
51999;BME280;73339;50.924;11.598;2024-03-02T09:36:10;98489.28;;;20.17;32.46
51999;BME280;73339;50.924;11.598;2024-03-02T09:38:36;98492.76;;;20.07;32.70
51999;BME280;73339;50.924;11.598;2024-03-02T09:41:07;98493.40;;;20.09;32.69
51999;BME280;73339;50.924;11.598;2024-03-02T09:43:38;98499.08;;;20.11;32.68
51999;BME280;73339;50.924;11.598;2024-03-02T09:46:09;98500.78;;;20.14;32.61
51999;BME280;73339;50.924;11.598;2024-03-02T09:48:38;98505.33;;;20.12;32.66
51999;BME280;73339;50.924;11.598;2024-03-02T09:51:10;98503.38;;;20.20;32.54
51999;BME280;73339;50.924;11.598;2024-03-02T09:53:39;98502.47;;;20.19;32.59
51999;BME280;73339;50.924;11.598;2024-03-02T09:56:10;98503.05;;;20.24;32.49
51999;BME280;73339;50.924;11.598;2024-03-02T09:58:40;98504.69;;;20.23;32.53
51999;BME280;73339;50.924;11.598;2024-03-02T10:01:11;98501.90;;;20.22;32.56
51999;BME280;73339;50.924;11.598;2024-03-02T10:03:44;98506.45;;;20.27;32.43
51999;BME280;73339;50.924;11.598;2024-03-02T10:06:20;98509.99;;;20.24;32.51
51999;BME280;73339;50.924;11.598;2024-03-02T10:08:43;98510.63;;;20.25;32.48
51999;BME280;73339;50.924;11.598;2024-03-02T10:13:43;98512.87;;;20.13;32.74
51999;BME280;73339;50.924;11.598;2024-03-02T10:16:14;98513.41;;;20.06;32.88
51999;BME280;73339;50.924;11.598;2024-03-02T10:18:44;98514.22;;;20.13;32.75
51999;BME280;73339;50.924;11.598;2024-03-02T10:21:14;98512.96;;;20.03;32.96
51999;BME280;73339;50.924;11.598;2024-03-02T10:23:45;98512.09;;;19.92;33.20
51999;BME280;73339;50.924;11.598;2024-03-02T10:26:17;98516.23;;;20.02;33.00
51999;BME280;73339;50.924;11.598;2024-03-02T10:28:46;98516.19;;;20.13;32.78
51999;BME280;73339;50.924;11.598;2024-03-02T10:31:16;98516.22;;;20.04;32.97
51999;BME280;73339;50.924;11.598;2024-03-02T10:33:47;98514.80;;;20.03;32.97
51999;BME280;73339;50.924;11.598;2024-03-02T10:36:17;98513.01;;;20.09;32.88
51999;BME280;73339;50.924;11.598;2024-03-02T10:38:48;98513.03;;;20.12;32.81
51999;BME280;73339;50.924;11.598;2024-03-02T10:41:18;98509.48;;;20.06;32.95
51999;BME280;73339;50.924;11.598;2024-03-02T10:43:51;98510.31;;;20.11;32.80
51999;BME280;73339;50.924;11.598;2024-03-02T10:46:20;98513.00;;;20.17;32.68
51999;BME280;73339;50.924;11.598;2024-03-02T10:48:50;98508.40;;;20.18;32.70
51999;BME280;73339;50.924;11.598;2024-03-02T10:51:20;98511.34;;;20.26;32.54
51999;BME280;73339;50.924;11.598;2024-03-02T10:53:51;98507.23;;;20.24;32.59
51999;BME280;73339;50.924;11.598;2024-03-02T10:56:26;98507.79;;;20.17;32.70
51999;BME280;73339;50.924;11.598;2024-03-02T10:59:01;98508.33;;;20.33;32.42
51999;BME280;73339;50.924;11.598;2024-03-02T11:01:23;98503.74;;;20.33;32.43
51999;BME280;73339;50.924;11.598;2024-03-02T11:03:59;98500.31;;;20.34;32.36
51999;BME280;73339;50.924;11.598;2024-03-02T11:06:24;98499.93;;;20.35;32.38
51999;BME280;73339;50.924;11.598;2024-03-02T11:08:55;98494.13;;;20.35;32.37
51999;BME280;73339;50.924;11.598;2024-03-02T11:11:29;98495.13;;;20.37;32.35
51999;BME280;73339;50.924;11.598;2024-03-02T11:13:57;98492.64;;;20.34;32.42
51999;BME280;73339;50.924;11.598;2024-03-02T11:16:31;98486.99;;;20.21;32.65
51999;BME280;73339;50.924;11.598;2024-03-02T11:18:56;98491.28;;;20.32;32.47
51999;BME280;73339;50.924;11.598;2024-03-02T11:21:26;98488.79;;;20.22;32.66
51999;BME280;73339;50.924;11.598;2024-03-02T11:23:56;98488.31;;;20.33;32.48
51999;BME280;73339;50.924;11.598;2024-03-02T11:26:27;98486.42;;;20.34;32.45
51999;BME280;73339;50.924;11.598;2024-03-02T11:28:57;98484.53;;;20.31;32.50
51999;BME280;73339;50.924;11.598;2024-03-02T11:36:29;98476.48;;;20.24;32.61
51999;BME280;73339;50.924;11.598;2024-03-02T11:38:59;98471.96;;;20.26;32.56
51999;BME280;73339;50.924;11.598;2024-03-02T11:41:30;98466.61;;;20.24;32.63
51999;BME280;73339;50.924;11.598;2024-03-02T11:44:00;98458.41;;;20.15;32.79
51999;BME280;73339;50.924;11.598;2024-03-02T11:46:30;98452.33;;;20.23;32.64
51999;BME280;73339;50.924;11.598;2024-03-02T11:49:01;98450.15;;;20.22;32.62
51999;BME280;73339;50.924;11.598;2024-03-02T11:51:33;98443.16;;;20.26;32.59
51999;BME280;73339;50.924;11.598;2024-03-02T11:54:03;98437.49;;;20.25;32.50
51999;BME280;73339;50.924;11.598;2024-03-02T11:56:33;98432.96;;;20.25;32.57
51999;BME280;73339;50.924;11.598;2024-03-02T11:59:03;98436.65;;;20.28;32.57
51999;BME280;73339;50.924;11.598;2024-03-02T12:01:34;98436.07;;;20.23;32.66
51999;BME280;73339;50.924;11.598;2024-03-02T12:04:05;98437.08;;;20.25;32.55
51999;BME280;73339;50.924;11.598;2024-03-02T12:06:34;98434.91;;;20.24;32.61
51999;BME280;73339;50.924;11.598;2024-03-02T12:09:05;98431.31;;;20.28;32.56
51999;BME280;73339;50.924;11.598;2024-03-02T12:11:35;98428.80;;;20.24;32.63
51999;BME280;73339;50.924;11.598;2024-03-02T12:14:11;98429.23;;;20.13;32.86
51999;BME280;73339;50.924;11.598;2024-03-02T12:16:36;98427.41;;;20.21;32.70
51999;BME280;73339;50.924;11.598;2024-03-02T12:19:06;98422.95;;;20.16;32.72
51999;BME280;73339;50.924;11.598;2024-03-02T12:21:37;98418.68;;;20.12;32.82
51999;BME280;73339;50.924;11.598;2024-03-02T12:24:07;98413.87;;;20.19;32.70
51999;BME280;73339;50.924;11.598;2024-03-02T12:26:38;98419.61;;;20.15;32.82
51999;BME280;73339;50.924;11.598;2024-03-02T12:29:08;98420.24;;;20.23;32.65
51999;BME280;73339;50.924;11.598;2024-03-02T12:31:39;98416.82;;;20.15;32.76
51999;BME280;73339;50.924;11.598;2024-03-02T12:34:09;98417.35;;;20.13;32.86
51999;BME280;73339;50.924;11.598;2024-03-02T12:36:40;98414.37;;;19.85;33.45
51999;BME280;73339;50.924;11.598;2024-03-02T12:39:11;98415.11;;;19.98;33.16
51999;BME280;73339;50.924;11.598;2024-03-02T12:41:41;98412.73;;;20.11;32.93
51999;BME280;73339;50.924;11.598;2024-03-02T12:44:11;98410.01;;;20.04;33.10
51999;BME280;73339;50.924;11.598;2024-03-02T12:46:42;98405.85;;;19.89;33.36
51999;BME280;73339;50.924;11.598;2024-03-02T12:49:14;98406.09;;;19.97;33.25
51999;BME280;73339;50.924;11.598;2024-03-02T12:51:43;98405.59;;;19.94;33.27
51999;BME280;73339;50.924;11.598;2024-03-02T12:54:14;98403.73;;;19.82;33.52
51999;BME280;73339;50.924;11.598;2024-03-02T12:56:44;98398.78;;;19.93;33.30
51999;BME280;73339;50.924;11.598;2024-03-02T12:59:18;98397.36;;;20.00;33.20
51999;BME280;73339;50.924;11.598;2024-03-02T13:01:50;98396.39;;;19.85;33.43
51999;BME280;73339;50.924;11.598;2024-03-02T13:04:22;98392.90;;;19.71;33.75
51999;BME280;73339;50.924;11.598;2024-03-02T13:06:45;98391.41;;;19.83;33.51
51999;BME280;73339;50.924;11.598;2024-03-02T13:09:16;98391.62;;;19.90;33.34
51999;BME280;73339;50.924;11.598;2024-03-02T13:11:47;98390.66;;;19.78;33.58
51999;BME280;73339;50.924;11.598;2024-03-02T13:14:17;98383.16;;;19.83;33.51